createdAt,value
2019-04-23T00:02:44.425Z,63.10
2019-04-23T00:05:02.810Z,64.20
2019-04-23T00:07:43.132Z,63.50
2019-04-23T00:10:12.456Z,63.60
2019-04-23T00:15:10.534Z,63.90
2019-04-23T00:20:14.292Z,64.40
2019-04-23T00:22:51.669Z,64.60
2019-04-23T00:25:43.654Z,64.70
2019-04-23T00:28:01.723Z,64.80
2019-04-23T00:30:36.551Z,64.80
2019-04-23T00:33:05.864Z,64.80
2019-04-23T00:35:32.624Z,65.20
2019-04-23T00:38:10.473Z,65.40
2019-04-23T00:43:17.339Z,65.60
2019-04-23T00:45:48.495Z,65.60
2019-04-23T00:48:28.926Z,65.60
2019-04-23T00:50:58.602Z,65.60
2019-04-23T00:53:24.898Z,66.40
2019-04-23T00:56:09.728Z,65.70
2019-04-23T00:58:41.615Z,65.60
2019-04-23T01:00:59.891Z,65.50
2019-04-23T01:03:25.610Z,65.30
2019-04-23T01:06:21.167Z,65.30
2019-04-23T01:08:35.624Z,65.20
2019-04-23T01:11:13.385Z,65.20
2019-04-23T01:13:49.580Z,65.60
2019-04-23T01:16:28.331Z,65.20
2019-04-23T01:18:51.376Z,65.10
2019-04-23T01:21:07.590Z,65.40
2019-04-23T01:23:53.975Z,65.30
2019-04-23T01:26:40.645Z,65.50
2019-04-23T01:29:21.260Z,65.60
2019-04-23T01:31:57.451Z,65.90
2019-04-23T01:34:28.033Z,66.00
2019-04-23T01:36:54.169Z,66.20
2019-04-23T01:39:23.283Z,66.30
2019-04-23T01:42:03.678Z,66.30
2019-04-23T01:44:38.750Z,66.40
2019-04-23T01:47:00.881Z,66.30
2019-04-23T01:49:36.000Z,66.40
2019-04-23T01:52:08.449Z,66.60
2019-04-23T01:54:38.650Z,66.70
2019-04-23T01:57:09.195Z,66.90
2019-04-23T01:59:46.188Z,66.90
2019-04-23T02:02:19.329Z,67.00
2019-04-23T02:04:52.642Z,67.10
2019-04-23T02:07:34.185Z,67.10
2019-04-23T02:10:16.685Z,67.20
2019-04-23T02:12:25.682Z,67.10
2019-04-23T02:15:03.618Z,67.10
2019-04-23T02:17:34.071Z,66.90
2019-04-23T02:22:52.112Z,66.80
2019-04-23T02:25:24.839Z,66.80
2019-04-23T02:27:53.745Z,67.50
2019-04-23T02:30:40.957Z,66.80
2019-04-23T02:35:42.663Z,66.70
2019-04-23T02:40:49.538Z,66.80
2019-04-23T02:43:13.059Z,66.90
2019-04-23T02:45:48.521Z,67.00
2019-04-23T02:53:26.330Z,67.80
2019-04-23T02:55:52.294Z,67.20
2019-04-23T02:58:28.298Z,67.30
2019-04-23T03:01:14.994Z,67.30
2019-04-23T03:06:00.977Z,67.20
2019-04-23T03:08:36.422Z,67.30
2019-04-23T03:11:09.859Z,67.50
2019-04-23T03:18:56.637Z,67.70
2019-04-23T03:21:25.471Z,68.00
2019-04-23T03:26:47.367Z,68.50
2019-04-23T03:29:16.687Z,68.70
2019-04-23T03:34:52.127Z,69.10
2019-04-23T03:39:13.940Z,69.10
2019-04-23T03:41:48.483Z,69.20
2019-04-23T03:44:20.581Z,69.20
2019-04-23T03:46:51.449Z,69.30
2019-04-23T03:49:32.897Z,69.30
2019-04-23T03:52:07.429Z,69.20
2019-04-23T03:57:21.903Z,69.10
2019-04-23T04:02:19.789Z,69.00
2019-04-23T04:04:39.534Z,69.50
2019-04-23T04:17:23.706Z,68.10
2019-04-23T04:25:05.183Z,67.60
2019-04-23T04:27:43.400Z,67.50
2019-04-23T04:30:07.811Z,67.10
2019-04-23T04:32:31.612Z,66.70
2019-04-23T04:42:41.852Z,66.20
2019-04-23T04:45:20.329Z,66.30
2019-04-23T04:50:15.413Z,65.50
2019-04-23T04:55:26.332Z,65.70
2019-04-23T04:57:52.934Z,64.90
2019-04-23T05:00:34.715Z,64.00
2019-04-23T05:03:12.592Z,63.80
2019-04-23T05:06:01.452Z,63.50
2019-04-23T05:13:24.740Z,62.10
2019-04-23T05:15:39.016Z,61.80
2019-04-23T05:20:52.954Z,61.30
2019-04-23T05:23:25.651Z,61.30
2019-04-23T05:25:49.991Z,60.60
2019-04-23T05:28:54.442Z,60.20
2019-04-23T05:31:01.587Z,59.40
2019-04-23T05:33:28.894Z,59.00
2019-04-23T05:38:43.208Z,57.90
2019-04-23T05:41:10.047Z,57.90
2019-04-23T05:43:40.811Z,57.10
2019-04-23T05:46:16.109Z,57.40
2019-04-23T05:48:42.947Z,57.20
2019-04-23T05:51:24.294Z,56.80
2019-04-23T05:53:56.277Z,56.70
2019-04-23T05:56:20.564Z,56.50
2019-04-23T05:58:55.817Z,56.90
2019-04-23T06:11:58.611Z,55.00
2019-04-23T06:14:19.131Z,54.20
2019-04-23T06:22:00.450Z,52.80
2019-04-23T06:26:57.521Z,51.70
2019-04-23T06:29:25.927Z,50.00
2019-04-23T06:31:53.985Z,50.40
2019-04-23T06:34:29.686Z,50.40
2019-04-23T06:36:57.079Z,49.20
2019-04-23T06:39:39.607Z,49.00
2019-04-23T06:42:09.137Z,48.00
2019-04-23T06:44:37.345Z,47.90
2019-04-23T06:49:44.142Z,47.40
2019-04-23T06:52:18.707Z,46.60
2019-04-23T06:54:56.186Z,46.60
2019-04-23T06:59:48.471Z,46.20
2019-04-23T07:02:30.886Z,46.00
2019-04-23T07:05:06.503Z,45.10
2019-04-23T07:09:57.907Z,44.80
2019-04-23T07:12:38.965Z,45.00
2019-04-23T07:17:34.533Z,44.20
2019-04-23T07:20:08.294Z,44.10
2019-04-23T07:22:34.541Z,42.60
2019-04-23T07:25:14.121Z,42.90
2019-04-23T07:27:41.082Z,42.90
2019-04-23T07:35:25.015Z,43.60
2019-04-23T07:38:01.830Z,43.30
2019-04-23T07:40:44.762Z,43.70
2019-04-23T07:43:39.704Z,43.60
2019-04-23T07:46:34.538Z,43.80
2019-04-23T07:48:58.993Z,44.30
2019-04-23T07:51:35.658Z,44.50
2019-04-23T07:54:09.547Z,44.90
2019-04-23T07:56:37.288Z,45.50
2019-04-23T07:59:16.098Z,44.60
2019-04-23T08:01:47.762Z,44.10
2019-04-23T08:04:10.143Z,44.10
2019-04-23T08:06:50.618Z,44.70
2019-04-23T08:09:17.351Z,44.90
2019-04-23T08:14:15.085Z,44.60
2019-04-23T08:16:49.918Z,44.50
2019-04-23T08:19:32.309Z,43.70
2019-04-23T08:22:10.818Z,43.80
2019-04-23T08:24:45.398Z,43.00
2019-04-23T08:29:36.366Z,43.70
2019-04-23T08:32:29.533Z,44.90
2019-04-23T08:40:08.254Z,45.20
2019-04-23T08:42:38.498Z,45.30
2019-04-23T08:47:50.708Z,46.10
2019-04-23T08:50:27.615Z,46.30
2019-04-23T08:53:14.867Z,46.30
2019-04-23T08:55:32.235Z,46.20
2019-04-23T08:57:59.215Z,46.60
2019-04-23T09:00:40.430Z,46.60
2019-04-23T09:03:13.127Z,46.90
2019-04-23T09:05:45.222Z,46.50
2019-04-23T09:08:17.123Z,46.10
2019-04-23T09:13:40.184Z,45.90
2019-04-23T09:15:51.077Z,45.90
2019-04-23T09:18:21.225Z,46.50
2019-04-23T09:20:52.996Z,46.40
2019-04-23T09:23:34.903Z,46.30
2019-04-23T09:31:11.655Z,46.60
2019-04-23T09:33:46.781Z,47.30
2019-04-23T09:36:37.959Z,48.00
2019-04-23T09:39:08.380Z,49.30
2019-04-23T09:41:39.838Z,51.10
2019-04-23T09:44:48.479Z,52.50
2019-04-23T09:47:17.486Z,52.60
2019-04-23T09:49:40.439Z,53.50
2019-04-23T09:52:13.325Z,53.30
2019-04-23T09:55:11.430Z,54.20
2019-04-23T09:57:15.979Z,54.40
2019-04-23T09:59:49.807Z,54.20
2019-04-23T10:02:19.509Z,54.10
2019-04-23T10:04:44.904Z,53.40
2019-04-23T10:07:12.621Z,53.60
2019-04-23T10:09:34.223Z,53.60
2019-04-23T10:12:07.326Z,53.40
2019-04-23T10:14:38.659Z,53.10
2019-04-23T10:17:10.379Z,51.50
2019-04-23T10:19:42.604Z,51.40
2019-04-23T10:22:13.360Z,51.10
2019-04-23T10:24:45.607Z,50.80
2019-04-23T10:27:17.027Z,50.70
2019-04-23T10:29:47.943Z,51.30
2019-04-23T10:32:19.764Z,50.80
2019-04-23T10:35:03.508Z,50.90
2019-04-23T10:37:34.330Z,50.70
2019-04-23T10:40:00.378Z,50.30
2019-04-23T10:42:30.707Z,50.10
2019-04-23T10:45:16.605Z,50.20
2019-04-23T10:48:31.756Z,51.10
2019-04-23T10:50:55.399Z,51.60
2019-04-23T10:56:00.688Z,52.80
2019-04-23T11:01:04.593Z,53.10
2019-04-23T11:06:17.631Z,54.00
2019-04-23T11:08:50.491Z,55.00
2019-04-23T11:11:16.563Z,56.90
2019-04-23T11:18:59.881Z,60.90
2019-04-23T11:21:31.344Z,62.40
2019-04-23T11:24:01.739Z,63.20
2019-04-23T11:29:12.745Z,64.30
2019-04-23T11:31:58.469Z,64.30
2019-04-23T11:34:19.971Z,64.50
2019-04-23T11:39:16.543Z,64.60
2019-04-23T11:41:51.393Z,64.50
2019-04-23T11:44:30.617Z,64.70
2019-04-23T11:54:30.907Z,64.10
2019-04-23T11:57:22.281Z,64.50
2019-04-23T11:59:40.785Z,64.00
2019-04-23T12:02:07.500Z,64.60
2019-04-23T12:04:57.588Z,64.60
2019-04-23T12:07:34.382Z,65.10
2019-04-23T12:10:20.020Z,65.80
2019-04-23T12:12:55.606Z,66.00
2019-04-23T12:15:18.097Z,65.80
2019-04-23T12:17:50.761Z,66.50
2019-04-23T12:20:28.568Z,67.10
2019-04-23T12:23:06.145Z,67.60
2019-04-23T12:25:34.112Z,67.80
2019-04-23T12:28:01.411Z,68.80
2019-04-23T12:30:39.451Z,69.50
2019-04-23T12:33:13.013Z,70.10
2019-04-23T12:35:40.763Z,70.30
2019-04-23T12:38:23.832Z,70.50
2019-04-23T12:40:45.913Z,71.10
2019-04-23T12:45:47.350Z,72.20
2019-04-23T12:48:33.724Z,72.50
2019-04-23T12:53:30.589Z,72.90
2019-04-23T12:56:05.007Z,73.60
2019-04-23T12:58:38.276Z,73.70
2019-04-23T13:00:58.425Z,72.90
2019-04-23T13:03:37.245Z,72.70
2019-04-23T13:05:59.330Z,73.00
2019-04-23T13:08:46.735Z,72.80
2019-04-23T13:11:14.047Z,72.00
2019-04-23T13:13:53.303Z,73.00
2019-04-23T13:16:25.472Z,73.60
2019-04-23T13:18:49.777Z,73.80
2019-04-23T13:21:45.314Z,73.60
2019-04-23T13:24:04.937Z,74.20
2019-04-23T13:26:35.621Z,74.60
2019-04-23T13:29:32.920Z,74.30
2019-04-23T13:31:34.363Z,73.70
2019-04-23T13:34:16.325Z,73.60
2019-04-23T13:36:46.768Z,74.10
2019-04-23T13:39:18.044Z,74.20
2019-04-23T13:41:48.243Z,73.70
2019-04-23T13:44:25.586Z,74.50
2019-04-23T13:47:00.002Z,74.70
2019-04-23T13:49:37.565Z,74.70
2019-04-23T13:52:05.913Z,74.60
2019-04-23T13:54:58.064Z,74.70
2019-04-23T13:57:34.745Z,74.70
2019-04-23T14:02:19.626Z,75.10
2019-04-23T14:05:06.280Z,74.90
2019-04-23T14:07:38.797Z,75.40
2019-04-23T14:10:14.867Z,74.90
2019-04-23T14:12:52.118Z,75.20
2019-04-23T14:15:10.728Z,75.00
2019-04-23T14:17:51.564Z,75.40
2019-04-23T14:20:18.904Z,74.80
2019-04-23T14:23:00.313Z,74.80
2019-04-23T14:25:16.678Z,74.70
2019-04-23T14:28:00.205Z,74.90
2019-04-23T14:30:29.879Z,75.00
2019-04-23T14:33:00.945Z,74.90
2019-04-23T14:38:15.897Z,76.00
2019-04-23T14:48:17.659Z,76.20
2019-04-23T14:50:54.669Z,76.40
2019-04-23T14:56:07.610Z,76.20
2019-04-23T15:01:15.996Z,76.00
2019-04-23T15:03:39.889Z,75.60
2019-04-23T15:08:57.413Z,75.40
2019-04-23T15:11:20.906Z,75.40
2019-04-23T15:13:47.364Z,75.40
2019-04-23T15:16:20.508Z,75.40
2019-04-23T15:24:00.838Z,75.70
2019-04-23T15:28:39.433Z,76.70
2019-04-23T15:31:35.061Z,75.50
2019-04-23T15:34:09.176Z,75.70
2019-04-23T15:36:58.149Z,75.80
2019-04-23T15:41:53.020Z,75.70
2019-04-23T15:46:56.636Z,74.50
2019-04-23T15:49:22.990Z,74.90
2019-04-23T15:52:00.751Z,75.40
2019-04-23T15:54:28.115Z,74.70
2019-04-23T15:56:55.054Z,74.60
2019-04-23T16:01:41.264Z,74.30
2019-04-23T16:04:06.108Z,74.60
2019-04-23T16:06:38.569Z,74.20
2019-04-23T16:09:36.219Z,74.40
2019-04-23T16:12:03.458Z,74.30
2019-04-23T16:14:56.783Z,74.30
2019-04-23T16:20:12.639Z,74.10
2019-04-23T16:22:30.438Z,74.40
2019-04-23T16:25:09.870Z,73.90
2019-04-23T16:27:29.313Z,74.00
2019-04-23T16:30:14.225Z,74.20
2019-04-23T16:32:56.089Z,74.20
2019-04-23T16:35:28.371Z,74.20
2019-04-23T16:38:01.448Z,73.70
2019-04-23T16:40:28.338Z,73.70
2019-04-23T16:43:00.841Z,73.90
2019-04-23T16:48:07.368Z,73.30
2019-04-23T16:50:41.340Z,73.30
2019-04-23T16:58:23.215Z,73.40
2019-04-23T17:01:00.481Z,73.10
2019-04-23T17:03:28.191Z,73.40
2019-04-23T17:05:57.859Z,73.10
2019-04-23T17:16:06.751Z,72.80
2019-04-23T17:18:31.189Z,72.80
2019-04-23T17:21:10.237Z,72.70
2019-04-23T17:26:10.679Z,72.60
2019-04-23T17:28:39.470Z,72.90
2019-04-23T17:31:34.525Z,73.00
2019-04-23T17:33:52.037Z,72.90
2019-04-23T17:36:33.505Z,73.00
2019-04-23T17:39:08.232Z,73.00
2019-04-23T17:41:38.873Z,72.90
2019-04-23T17:46:56.277Z,72.80
2019-04-23T17:49:23.375Z,72.60
2019-04-23T17:51:59.269Z,72.70
2019-04-23T17:54:43.276Z,72.90
2019-04-23T17:57:07.566Z,73.00
2019-04-23T18:05:02.632Z,72.90
2019-04-23T18:10:24.943Z,73.10
2019-04-23T18:15:04.957Z,73.10
2019-04-23T18:20:13.481Z,73.00
2019-04-23T18:22:49.155Z,72.90
2019-04-23T18:27:54.193Z,73.20
2019-04-23T18:30:26.367Z,73.30
2019-04-23T18:33:43.393Z,73.40
2019-04-23T18:38:22.872Z,73.50
2019-04-23T18:41:00.793Z,73.40
2019-04-23T18:43:23.976Z,73.50
2019-04-23T18:45:54.080Z,73.40
2019-04-23T18:48:40.447Z,73.50
2019-04-23T18:51:03.820Z,73.80
2019-04-23T18:56:20.785Z,74.00
2019-04-23T19:01:27.917Z,73.80
2019-04-23T19:04:06.511Z,73.80
2019-04-23T19:06:34.483Z,73.90
2019-04-23T19:09:39.131Z,74.10
2019-04-23T19:12:14.346Z,73.40
2019-04-23T19:14:53.577Z,74.00
2019-04-23T19:17:44.121Z,74.30
2019-04-23T19:19:49.934Z,74.00
2019-04-23T19:25:09.354Z,73.70
2019-04-23T19:27:29.454Z,73.30
2019-04-23T19:30:07.063Z,73.10
2019-04-23T19:32:43.511Z,72.90
2019-04-23T19:35:23.752Z,73.10
2019-04-23T19:40:20.162Z,72.70
2019-04-23T19:42:52.358Z,73.30
2019-04-23T19:45:30.542Z,72.30
2019-04-23T19:47:58.662Z,72.60
2019-04-23T19:50:32.951Z,72.30
2019-04-23T19:53:14.228Z,71.90
2019-04-23T19:55:29.915Z,72.30
2019-04-23T19:58:15.023Z,71.70
2019-04-23T20:00:58.245Z,71.80
2019-04-23T20:03:25.976Z,71.80
2019-04-23T20:05:47.078Z,71.70
2019-04-23T20:08:31.395Z,71.80
2019-04-23T20:11:01.283Z,71.60
2019-04-23T20:13:21.733Z,71.30
2019-04-23T20:16:05.409Z,71.10
2019-04-23T20:18:37.894Z,71.00
2019-04-23T20:20:54.229Z,71.10
2019-04-23T20:23:45.473Z,71.10
2019-04-23T20:26:16.100Z,70.80
2019-04-23T20:32:53.964Z,70.40
2019-04-23T20:36:45.919Z,70.90
2019-04-23T20:39:16.380Z,70.80
2019-04-23T20:47:05.758Z,70.90
2019-04-23T20:49:38.781Z,70.90
2019-04-23T20:52:04.652Z,70.60
2019-04-23T20:54:50.911Z,70.50
2019-04-23T21:05:17.158Z,70.00
2019-04-23T21:10:27.665Z,70.20
2019-04-23T21:25:39.136Z,70.10
2019-04-23T21:28:31.440Z,70.30
2019-04-23T21:36:10.728Z,70.20
2019-04-23T21:38:39.832Z,69.80
2019-04-23T21:43:47.331Z,69.50
2019-04-23T21:46:14.569Z,69.50
2019-04-23T21:48:53.075Z,69.40
2019-04-23T21:51:22.964Z,69.40
2019-04-23T21:53:50.673Z,69.10
2019-04-23T21:56:15.544Z,69.10
2019-04-23T21:58:57.935Z,68.60
2019-04-23T22:01:32.111Z,68.50
2019-04-23T22:04:12.773Z,67.90
2019-04-23T22:06:35.804Z,67.50
2019-04-23T22:19:26.789Z,65.90
2019-04-23T22:21:45.341Z,65.20
2019-04-23T22:26:45.289Z,65.00
2019-04-23T22:34:36.793Z,64.80
2019-04-23T22:37:09.838Z,63.70
2019-04-23T22:39:34.560Z,63.10
2019-04-23T22:42:08.880Z,63.30
2019-04-23T22:44:51.605Z,62.60
2019-04-23T22:47:05.966Z,62.70
2019-04-23T22:49:47.948Z,62.60
2019-04-23T22:52:16.423Z,62.70
2019-04-23T22:54:57.584Z,62.80
2019-04-23T22:57:09.015Z,62.60
2019-04-23T23:00:04.549Z,62.90
2019-04-23T23:07:47.701Z,63.50
2019-04-23T23:12:51.350Z,64.60
2019-04-23T23:18:07.487Z,63.90
2019-04-23T23:20:20.847Z,63.80
2019-04-23T23:23:05.603Z,63.80
2019-04-23T23:28:00.617Z,63.80
2019-04-23T23:30:26.568Z,64.10
2019-04-23T23:33:02.564Z,63.90
2019-04-23T23:35:31.228Z,64.20
2019-04-23T23:38:09.773Z,63.90
2019-04-23T23:40:40.277Z,64.20
2019-04-23T23:45:53.169Z,64.60
2019-04-23T23:48:13.081Z,64.80
2019-04-23T23:50:55.092Z,65.00
2019-04-23T23:53:32.888Z,65.30
2019-04-23T23:55:58.685Z,65.40
2019-04-23T23:58:36.580Z,66.00
